• Join FlightAware (Why Join?)
  • Login
  • US Flag 
08:30PM EDT


 

Airport Tracker/Info


-or-


 

Live Flight TrackerFlight Track Log ✈ CPZ5718 ✈ 20-Jan-2014 ✈ KPSC - KSLC

Flight Track Log - Related Links

Times and Time Zones

All times are in EST time to prevent confusion due to time zone crossing. See the CPZ5718 flight status page for this flight to view local times or setup timezone preferences in your user account.

Time Position Orientation Groundspeed Altitude Reporting Facility
EST Latitude Longitude Course Direction KTS MPH feet Rate Location/Type
09:38AM 46.2950 -119.1589 148° Southeast 145 167 2,100  Level Seattle Center
09:39AM 46.2661 -119.2008 225° Southwest 224 258 3,400 2,160 Climbing Seattle Center
09:40AM 45.9477 -118.6499 147° Southeast  Level Estimated
09:40AM 46.2103 -119.1408 143° Southeast 255 293 6,500  Level Seattle Center
09:41AM 45.8406 -118.5958 161° South  Level FlightAware Approximate
09:41AM 46.1450 -119.0756 145° Southeast 266 306 9,600  Level Seattle Center
09:42AM 45.7616 -118.4788 148° Southeast  Level Estimated
09:42AM 46.0767 -119.0075 145° Southeast 301 346 11,000  Level Seattle Center
09:43AM 45.6862 -118.3678 148° Southeast  Level Estimated
09:43AM 46.0075 -118.9142 137° Southeast 343 395 13,300  Level Seattle Center
09:44AM 45.9417 -118.8081 132° Southeast 354 407 15,200 1,800 Climbing Seattle Center
09:45AM 45.8714 -118.6947 132° Southeast 380 437 17,000 1,500 Climbing Seattle Center
09:46AM 45.8100 -118.5992 133° Southeast 384 442 18,300 1,680 Climbing Seattle Center
09:47AM 45.7303 -118.4728 132° Southeast 394 453 20,500 1,980 Climbing Seattle Center
09:48AM 45.6428 -118.3347 132° Southeast 413 475 22,300 1,680 Climbing Seattle Center
09:49AM 45.5633 -118.2078 132° Southeast 425 489 23,900 1,440 Climbing Seattle Center
09:50AM 45.4808 -118.0783 132° Southeast 438 504 25,300 1,200 Climbing Seattle Center
09:51AM 45.3956 -117.9453 132° Southeast 450 518 26,400 1,080 Climbing Seattle Center
09:52AM 45.3086 -117.8092 132° Southeast 464 534 27,500 1,080 Climbing Seattle Center
09:53AM 45.2192 -117.6731 133° Southeast 469 540 28,600 1,020 Climbing Seattle Center
09:54AM 45.1347 -117.5406 132° Southeast 478 550 29,600 1,140 Climbing Seattle Center
09:55AM 45.0442 -117.4033 133° Southeast 478 550 30,900 1,260 Climbing Seattle Center
09:56AM 44.9564 -117.2692 133° Southeast 470 541 32,200 1,080 Climbing Seattle Center
09:57AM 44.8689 -117.1378 133° Southeast 464 534 33,200 960 Climbing Salt Lake Center
09:58AM 44.7639 -116.9778 133° Southeast 464 534 34,300 780 Climbing Salt Lake Center
09:59AM 44.6772 -116.8469 133° Southeast 462 532 34,900 300 Climbing Salt Lake Center
10:00AM 44.5878 -116.7136 133° Southeast 469 540 35,000  Climbing Salt Lake Center
10:01AM 44.4981 -116.5792 133° Southeast 475 547 35,000  Level Salt Lake Center
10:02AM 44.4081 -116.4467 134° Southeast 476 548 35,000  Level Salt Lake Center
10:03AM 44.3178 -116.3142 134° Southeast 480 552 35,000  Level Salt Lake Center
10:04AM 44.2281 -116.1817 133° Southeast 480 552 35,000  Level Salt Lake Center
10:05AM 44.1189 -116.0225 134° Southeast 480 552 35,000  Level Salt Lake Center
10:06AM 44.0269 -115.8892 134° Southeast 482 555 35,000  Level Salt Lake Center
10:07AM 43.9350 -115.7575 134° Southeast 477 549 35,000  Level Salt Lake Center
10:08AM 43.8428 -115.6222 133° Southeast 481 554 35,000  Level Salt Lake Center
10:09AM 43.7503 -115.4906 134° Southeast 481 554 35,000  Level Salt Lake Center
10:10AM 43.6569 -115.3575 134° Southeast 482 555 35,000  Level Salt Lake Center
10:11AM 43.5639 -115.2256 134° Southeast 482 555 35,000  Level Salt Lake Center
10:12AM 43.4703 -115.0933 134° Southeast 482 555 35,000  Level Salt Lake Center
10:13AM 43.3764 -114.9606 134° Southeast 485 558 35,000  Level Salt Lake Center
10:14AM 43.2639 -114.8014 134° Southeast 485 558 35,000  Level Salt Lake Center
10:15AM 43.1689 -114.6703 135° Southeast 486 559 35,000  Level Salt Lake Center
10:17AM 42.9781 -114.4058 135° Southeast 493 567 35,000  Level Salt Lake Center
10:18AM 42.8897 -114.2853 135° Southeast 489 563 35,000  Level Salt Lake Center
10:19AM 42.7933 -114.1544 135° Southeast 490 564 35,000  Level Salt Lake Center
10:20AM 42.6783 -113.9958 135° Southeast 491 565 35,000  Level Salt Lake Center
10:21AM 42.5803 -113.8661 136° Southeast 493 567 35,000 -600 Level Salt Lake Center
10:22AM 42.4828 -113.7342 135° Southeast 496 571 33,800 -1,920 Descending Salt Lake Center
10:23AM 42.3858 -113.6033 135° Southeast 494 568 31,200 -2,400 Descending Salt Lake Center
10:24AM 42.2908 -113.4778 136° Southeast 485 558 29,000 -1,080 Descending Salt Lake Center
10:25AM 42.1933 -113.3508 136° Southeast 487 560 29,000  Level Salt Lake Center
10:26AM 42.0956 -113.2222 136° Southeast 491 565 29,000  Level Salt Lake Center
10:27AM 41.9975 -113.0942 136° Southeast 493 567 29,000 -1,080 Level Salt Lake Center
10:28AM 41.9006 -112.9678 136° Southeast 488 562 26,900 -2,520 Descending Salt Lake Center
10:29AM 41.7897 -112.8219 136° Southeast 471 542 23,900 -2,640 Descending Salt Lake Center
10:30AM 41.7003 -112.7075 136° Southeast 451 519 21,600 -2,280 Descending Salt Lake Center
10:32AM 41.6131 -112.5967 136° Southeast 435 501 19,300 -2,280 Descending Salt Lake Center
10:32AM 41.6136 -112.5844 87° East 428 493 19,200 -2,040 Descending Salt Lake Center
10:32AM 41.5481 -112.5003 136° Southeast 429 494 17,800 -1,980 Descending Salt Lake Center
10:33AM 41.5281 -112.4875 154° Southeast 426 490 17,300 -1,740 Descending Salt Lake Center
10:33AM 41.4475 -112.4114 145° Southeast 398 458 15,900 -1,620 Descending Salt Lake Center
10:34AM 41.4347 -112.4092 173° South 398 458 15,700 -1,380 Descending Salt Lake Center
10:34AM 41.3486 -112.3447 151° Southeast 398 458 14,500 -1,260 Descending Salt Lake Center
10:35AM 41.3369 -112.3408 166° South 396 456 14,400 -1,320 Descending Salt Lake Center
10:35AM 41.2544 -112.2794 151° Southeast 386 444 13,200 -1,380 Descending Salt Lake Center
10:36AM 41.2425 -112.2742 162° South 389 448 13,000 -180 Descending Salt Lake Center
10:37AM 41.1489 -112.2011 150° Southeast 373 429 13,000  Level Salt Lake Center
10:37AM 41.1528 -112.2064 314° West 376 433 13,000  Level Salt Lake Center
10:37AM 41.0647 -112.1444 152° Southeast 381 438 13,000  Level Salt Lake Center
10:38AM 41.0419 -112.1378 168° South 373 429 13,000 -1,200 Level Salt Lake Center
10:38AM 40.9594 -112.1231 172° South 379 436 11,800 -1,500 Descending Salt Lake Center
10:39AM 40.9392 -112.1175 168° South 377 434 11,500 -660 Descending Salt Lake Center
10:40AM 40.8386 -112.1017 173° South 367 422 11,000 -300 Descending Salt Lake Center
10:41AM 40.7581 -112.0914 174° South 277 319 11,000 -1,020 Level Salt Lake Center
10:42AM 40.6933 -112.0828 174° South 250 288 9,100 -1,980 Descending Salt Lake Center
10:42AM 40.6903 -112.0794 140° Southeast 250 288 9,000 -1,980 Descending Salt Lake Center
10:43AM 40.6669 -112.0086 113° Southeast 233 268 6,800 -1,740 Descending Salt Lake Center
10:44AM 40.6983 -111.9653 46° Northeast 202 232 5,800 -1,200 Descending Salt Lake Center
10:44AM 40.7092 -111.9650 North 196 226 5,600 -1,020 Descending Salt Lake Center
10:45AM 40.7447 -111.9719 352° North 150 173 4,800 -900 Descending Salt Lake Center
10:45AM 40.7542 -111.9703 North 166 191 4,700 -540 Descending Salt Lake Center
10:46AM 40.7928 -111.9744 355° North 144 166 4,200 -540 Descending Salt Lake Center